Time;durP1;ratioP1;P1;durP2;ratioP2;P2;SDS_P1;SDS_P2;PMS_P1;PMS_P2;Temp;Humidity;BMP_temperature;BMP_pressure;BME280_temperature;BME280_humidity;BME280_pressure;Samples;Min_cycle;Max_cycle;Signal;HPM_P1;HPM_P2
2023/07/02 00:01:48;;;;;;;10.05;4.43;;;;;;;;;;4984190;28;20025;-64
2023/07/02 00:04:16;;;;;;;15.15;10.60;;;;;;;;;;4986543;28;20034;-63
2023/07/02 00:06:45;;;;;;;11.98;7.30;;;;;;;;;;4983345;28;20022;-63
2023/07/02 00:09:11;;;;;;;11.60;6.03;;;;;;;;;;4982491;28;20041;-64
2023/07/02 00:11:41;;;;;;;9.93;4.70;;;;;;;;;;4986783;28;20029;-64
2023/07/02 00:14:08;;;;;;;8.95;4.30;;;;;;;;;;4982948;28;24077;-65
2023/07/02 00:16:36;;;;;;;9.25;4.38;;;;;;;;;;4985820;28;20713;-65
2023/07/02 00:19:02;;;;;;;8.93;4.05;;;;;;;;;;4982743;28;20368;-66
2023/07/02 00:21:28;;;;;;;8.27;4.00;;;;;;;;;;4983565;28;20053;-65
2023/07/02 00:23:57;;;;;;;10.25;4.20;;;;;;;;;;4976820;28;20038;-65
2023/07/02 00:26:24;;;;;;;10.40;4.40;;;;;;;;;;4981054;28;20025;-65
2023/07/02 00:28:51;;;;;;;11.00;5.05;;;;;;;;;;4978972;28;20685;-66
2023/07/02 00:31:17;;;;;;;10.27;4.63;;;;;;;;;;4981731;28;20029;-66
2023/07/02 00:33:43;;;;;;;10.50;4.70;;;;;;;;;;4961771;28;20026;-66
2023/07/02 00:36:14;;;;;;;10.25;4.70;;;;;;;;;;4978044;28;20032;-66
2023/07/02 00:38:45;;;;;;;11.65;4.97;;;;;;;;;;4981670;28;20116;-65
2023/07/02 00:41:11;;;;;;;10.25;5.10;;;;;;;;;;4976283;28;20034;-66
2023/07/02 00:43:43;;;;;;;10.93;5.13;;;;;;;;;;4979177;28;20026;-65
2023/07/02 00:46:10;;;;;;;11.45;5.00;;;;;;;;;;4977138;28;20037;-65
2023/07/02 00:48:36;;;;;;;10.52;4.78;;;;;;;;;;4963424;28;20499;-65
2023/07/02 00:51:02;;;;;;;12.98;5.07;;;;;;;;;;4961023;28;20566;-65
2023/07/02 00:53:28;;;;;;;10.55;5.10;;;;;;;;;;4980093;28;20034;-65
2023/07/02 00:55:54;;;;;;;14.50;8.10;;;;;;;;;;4977757;28;20068;-66
2023/07/02 00:58:20;;;;;;;13.82;7.88;;;;;;;;;;4978451;28;20058;-65
2023/07/02 01:00:47;;;;;;;13.45;6.90;;;;;;;;;;4980740;28;20041;-65
2023/07/02 01:03:13;;;;;;;12.10;5.85;;;;;;;;;;4980936;28;20030;-65
2023/07/02 01:05:41;;;;;;;11.48;5.63;;;;;;;;;;4962708;28;20037;-64
2023/07/02 01:08:07;;;;;;;11.25;5.00;;;;;;;;;;4976484;28;20026;-65
2023/07/02 01:10:35;;;;;;;10.75;5.00;;;;;;;;;;4981263;28;20136;-64
2023/07/02 01:13:02;;;;;;;10.73;5.18;;;;;;;;;;4976637;28;20025;-64
2023/07/02 01:15:28;;;;;;;9.50;5.00;;;;;;;;;;4979126;28;20035;-64
2023/07/02 01:17:55;;;;;;;10.00;5.03;;;;;;;;;;4976711;28;20173;-64
2023/07/02 01:20:21;;;;;;;11.85;5.00;;;;;;;;;;4981308;28;20034;-65
2023/07/02 01:22:52;;;;;;;12.15;4.85;;;;;;;;;;4979933;28;20091;-64
2023/07/02 01:25:24;;;;;;;11.43;5.30;;;;;;;;;;4979767;28;20120;-64
2023/07/02 01:27:55;;;;;;;10.65;5.00;;;;;;;;;;4957932;28;20033;-64
2023/07/02 01:30:21;;;;;;;9.70;4.90;;;;;;;;;;4961019;28;20034;-64
2023/07/02 01:32:48;;;;;;;13.15;5.07;;;;;;;;;;4980044;28;20485;-64
2023/07/02 01:35:16;;;;;;;10.50;4.57;;;;;;;;;;4980312;28;20028;-64
2023/07/02 01:37:42;;;;;;;12.77;5.75;;;;;;;;;;4977867;28;20032;-64
2023/07/02 01:40:08;;;;;;;10.10;5.10;;;;;;;;;;4955722;28;20530;-65
2023/07/02 01:42:35;;;;;;;11.23;4.70;;;;;;;;;;4975739;28;20445;-63
2023/07/02 01:45:01;;;;;;;11.52;4.93;;;;;;;;;;4973875;28;20021;-63
2023/07/02 01:47:27;;;;;;;9.57;4.43;;;;;;;;;;4975961;28;20138;-63
2023/07/02 01:49:53;;;;;;;9.60;4.72;;;;;;;;;;4977599;28;20059;-63
2023/07/02 01:52:20;;;;;;;11.70;5.35;;;;;;;;;;4977550;28;20121;-63
2023/07/02 01:54:47;;;;;;;10.43;5.57;;;;;;;;;;4978594;28;20425;-63
2023/07/02 01:57:13;;;;;;;12.02;5.70;;;;;;;;;;4959756;28;20021;-65
2023/07/02 01:59:39;;;;;;;11.05;5.97;;;;;;;;;;4977275;28;20052;-64
2023/07/02 02:02:06;;;;;;;12.57;6.10;;;;;;;;;;4960279;28;20135;-63
2023/07/02 02:04:32;;;;;;;11.40;5.80;;;;;;;;;;4964454;28;20846;-63
2023/07/02 02:06:58;;;;;;;10.63;5.30;;;;;;;;;;4976788;28;20663;-66
2023/07/02 02:09:24;;;;;;;11.40;5.07;;;;;;;;;;4978926;28;20030;-65
2023/07/02 02:11:52;;;;;;;12.32;6.95;;;;;;;;;;4974531;28;20395;-65
2023/07/02 02:14:19;;;;;;;11.73;5.85;;;;;;;;;;4976975;28;20030;-64
2023/07/02 02:16:45;;;;;;;10.25;5.18;;;;;;;;;;4963469;28;20044;-65
2023/07/02 02:19:12;;;;;;;10.13;5.05;;;;;;;;;;4977986;28;20115;-64
2023/07/02 02:21:39;;;;;;;12.80;5.15;;;;;;;;;;4977625;28;20825;-64
2023/07/02 02:24:07;;;;;;;12.20;5.72;;;;;;;;;;4975541;28;20485;-64
2023/07/02 02:26:33;;;;;;;14.45;6.88;;;;;;;;;;4960727;28;20319;-65
2023/07/02 02:28:59;;;;;;;12.43;5.72;;;;;;;;;;4969783;28;20037;-64
2023/07/02 02:31:25;;;;;;;10.20;5.25;;;;;;;;;;4981501;28;20427;-64
2023/07/02 02:33:51;;;;;;;10.07;4.45;;;;;;;;;;4954702;28;20931;-64
2023/07/02 02:36:18;;;;;;;9.93;4.50;;;;;;;;;;4964130;28;20025;-64
2023/07/02 02:38:44;;;;;;;9.38;4.30;;;;;;;;;;4958539;28;20835;-64
2023/07/02 02:41:10;;;;;;;10.35;4.38;;;;;;;;;;4974826;28;20091;-64
2023/07/02 02:43:36;;;;;;;9.95;4.80;;;;;;;;;;4959699;28;20034;-65
2023/07/02 02:46:02;;;;;;;11.75;5.05;;;;;;;;;;4961722;28;20136;-64
2023/07/02 02:48:29;;;;;;;10.32;4.72;;;;;;;;;;4977107;28;20116;-64
2023/07/02 02:50:55;;;;;;;10.35;4.68;;;;;;;;;;4973569;28;20380;-65
2023/07/02 02:53:21;;;;;;;12.35;4.72;;;;;;;;;;4975904;28;20030;-65
2023/07/02 02:55:48;;;;;;;10.07;4.20;;;;;;;;;;4976593;28;20053;-66
2023/07/02 02:58:14;;;;;;;10.45;4.55;;;;;;;;;;4975750;28;20259;-63
2023/07/02 03:00:44;;;;;;;9.23;4.25;;;;;;;;;;4976541;28;20380;-63
2023/07/02 03:03:10;;;;;;;10.20;4.15;;;;;;;;;;4973266;28;20114;-63
2023/07/02 03:05:36;;;;;;;9.40;4.30;;;;;;;;;;4975191;28;20026;-66
2023/07/02 03:08:02;;;;;;;9.48;4.15;;;;;;;;;;4972653;28;20038;-63
2023/07/02 03:10:29;;;;;;;8.20;3.72;;;;;;;;;;4975390;28;20367;-64
2023/07/02 03:12:55;;;;;;;8.27;3.72;;;;;;;;;;4971569;28;20037;-64
2023/07/02 03:15:21;;;;;;;8.20;3.83;;;;;;;;;;4956519;28;20259;-64
2023/07/02 03:17:48;;;;;;;8.70;3.60;;;;;;;;;;4978027;28;20041;-63
2023/07/02 03:20:14;;;;;;;9.73;3.50;;;;;;;;;;4977745;28;20384;-64
2023/07/02 03:22:40;;;;;;;7.93;3.08;;;;;;;;;;4976383;28;20842;-63
2023/07/02 03:25:06;;;;;;;9.82;3.97;;;;;;;;;;4956952;28;20116;-63
2023/07/02 03:27:33;;;;;;;8.50;3.75;;;;;;;;;;4962343;28;20042;-64
2023/07/02 03:29:59;;;;;;;8.45;3.67;;;;;;;;;;4973884;28;20025;-64
2023/07/02 03:32:25;;;;;;;8.32;3.60;;;;;;;;;;4964534;28;20041;-64
2023/07/02 03:34:51;;;;;;;9.30;3.75;;;;;;;;;;4978530;28;20033;-64
2023/07/02 03:37:18;;;;;;;9.63;3.95;;;;;;;;;;4980763;28;20102;-63
2023/07/02 03:39:44;;;;;;;7.35;3.25;;;;;;;;;;4960972;28;20036;-64
2023/07/02 03:42:10;;;;;;;7.90;3.20;;;;;;;;;;4980335;28;20461;-64
2023/07/02 03:44:36;;;;;;;9.43;3.90;;;;;;;;;;4979676;28;20042;-63
2023/07/02 03:47:02;;;;;;;8.13;3.50;;;;;;;;;;4976619;28;20365;-64
2023/07/02 03:49:29;;;;;;;7.65;3.17;;;;;;;;;;4983204;28;20203;-63
2023/07/02 03:51:55;;;;;;;9.40;3.80;;;;;;;;;;4975729;28;20034;-64
2023/07/02 03:54:21;;;;;;;6.80;3.00;;;;;;;;;;4979995;28;20026;-63
2023/07/02 03:56:47;;;;;;;7.85;3.50;;;;;;;;;;4979612;28;20141;-64
2023/07/02 03:59:13;;;;;;;8.77;3.50;;;;;;;;;;4965121;28;20522;-64
2023/07/02 04:01:39;;;;;;;9.27;3.65;;;;;;;;;;4984001;28;20038;-62
2023/07/02 04:04:06;;;;;;;8.27;3.80;;;;;;;;;;4974439;28;20038;-63
2023/07/02 04:06:34;;;;;;;8.90;3.58;;;;;;;;;;4959469;28;20343;-64
2023/07/02 04:09:00;;;;;;;9.30;3.63;;;;;;;;;;4972576;28;20332;-65
2023/07/02 04:11:26;;;;;;;8.15;3.88;;;;;;;;;;4983745;28;20536;-63
2023/07/02 04:13:52;;;;;;;9.23;3.25;;;;;;;;;;4961762;28;20034;-63
2023/07/02 04:16:18;;;;;;;7.72;3.15;;;;;;;;;;4979739;28;20029;-63
2023/07/02 04:18:44;;;;;;;7.80;3.30;;;;;;;;;;4978052;28;20050;-64
2023/07/02 04:21:10;;;;;;;6.80;2.80;;;;;;;;;;4975874;28;20041;-64
2023/07/02 04:23:37;;;;;;;9.55;3.00;;;;;;;;;;4975482;28;20042;-64
2023/07/02 04:26:03;;;;;;;7.43;3.15;;;;;;;;;;4956979;28;20069;-64
2023/07/02 04:28:29;;;;;;;7.57;3.08;;;;;;;;;;4962453;28;20040;-63
2023/07/02 04:30:55;;;;;;;8.00;3.20;;;;;;;;;;4970829;28;20101;-64
2023/07/02 04:33:21;;;;;;;7.40;2.90;;;;;;;;;;4963856;28;20499;-63
2023/07/02 04:35:48;;;;;;;7.65;3.30;;;;;;;;;;4964290;28;20032;-62
2023/07/02 04:38:14;;;;;;;7.10;3.03;;;;;;;;;;4962717;28;20038;-63
2023/07/02 04:40:44;;;;;;;9.15;3.50;;;;;;;;;;4977457;28;20026;-64
2023/07/02 04:43:10;;;;;;;8.45;2.95;;;;;;;;;;4974222;28;20029;-63
2023/07/02 04:45:36;;;;;;;6.90;2.80;;;;;;;;;;4981576;28;20338;-63
2023/07/02 04:48:06;;;;;;;5.80;2.42;;;;;;;;;;4975275;28;20030;-64
2023/07/02 04:50:32;;;;;;;8.07;3.17;;;;;;;;;;4964529;28;20044;-64
2023/07/02 04:52:58;;;;;;;8.40;3.00;;;;;;;;;;4975299;28;20475;-63
2023/07/02 04:55:24;;;;;;;8.25;3.10;;;;;;;;;;4981320;28;20503;-63
2023/07/02 04:57:50;;;;;;;8.50;3.20;;;;;;;;;;4975914;28;20672;-63
2023/07/02 05:00:17;;;;;;;8.23;3.10;;;;;;;;;;4983646;28;20448;-63
2023/07/02 05:02:43;;;;;;;8.90;3.00;;;;;;;;;;4963058;28;20145;-64
2023/07/02 05:05:09;;;;;;;7.30;3.00;;;;;;;;;;4973433;28;20046;-64
2023/07/02 05:07:35;;;;;;;8.27;2.83;;;;;;;;;;4978980;28;20036;-64
2023/07/02 05:10:01;;;;;;;10.82;3.50;;;;;;;;;;4974545;28;20520;-64
2023/07/02 05:12:28;;;;;;;7.70;2.33;;;;;;;;;;4979596;28;20514;-65
2023/07/02 05:14:54;;;;;;;9.35;2.72;;;;;;;;;;4976683;28;20108;-63
2023/07/02 05:17:20;;;;;;;8.82;3.00;;;;;;;;;;4980108;28;20066;-63
2023/07/02 05:19:46;;;;;;;8.35;3.30;;;;;;;;;;4981091;28;20044;-63
2023/07/02 05:22:12;;;;;;;7.28;3.00;;;;;;;;;;4978187;28;20440;-64
2023/07/02 05:24:40;;;;;;;7.88;2.80;;;;;;;;;;4979450;28;20046;-64
2023/07/02 05:27:07;;;;;;;6.95;2.88;;;;;;;;;;4975346;28;20046;-64
2023/07/02 05:29:33;;;;;;;7.03;2.75;;;;;;;;;;4976672;28;20036;-65
2023/07/02 05:31:59;;;;;;;8.68;3.13;;;;;;;;;;4979944;28;20030;-66
2023/07/02 05:34:25;;;;;;;8.13;3.50;;;;;;;;;;4962451;28;20125;-63
2023/07/02 05:36:51;;;;;;;7.35;2.97;;;;;;;;;;4977359;28;20117;-65
2023/07/02 05:39:17;;;;;;;7.47;3.10;;;;;;;;;;4978385;28;20163;-65
2023/07/02 05:41:43;;;;;;;6.15;2.40;;;;;;;;;;4985589;28;20030;-62
2023/07/02 05:44:10;;;;;;;7.10;2.85;;;;;;;;;;4979361;28;20037;-65
2023/07/02 05:46:36;;;;;;;7.88;2.90;;;;;;;;;;4980746;28;20038;-65
2023/07/02 05:49:02;;;;;;;7.93;2.97;;;;;;;;;;4979143;28;20038;-62
2023/07/02 05:51:28;;;;;;;7.28;2.92;;;;;;;;;;4983545;28;20096;-64
2023/07/02 05:53:54;;;;;;;6.03;2.30;;;;;;;;;;4959827;28;20048;-64
2023/07/02 05:56:20;;;;;;;6.18;2.50;;;;;;;;;;4959200;28;20034;-64
2023/07/02 05:58:47;;;;;;;7.65;3.00;;;;;;;;;;4977838;28;20473;-66
2023/07/02 06:01:14;;;;;;;7.07;3.03;;;;;;;;;;4978753;28;20108;-65
2023/07/02 06:03:40;;;;;;;8.18;3.03;;;;;;;;;;4980490;28;20151;-65
2023/07/02 06:06:06;;;;;;;7.78;3.10;;;;;;;;;;4975667;28;20516;-64
2023/07/02 06:08:32;;;;;;;7.00;2.72;;;;;;;;;;4963251;28;20740;-64
2023/07/02 06:10:58;;;;;;;7.45;3.08;;;;;;;;;;4976347;28;20034;-64
2023/07/02 06:13:24;;;;;;;7.07;3.00;;;;;;;;;;4963958;28;20050;-63
2023/07/02 06:15:51;;;;;;;10.07;3.25;;;;;;;;;;4976959;28;20552;-64
2023/07/02 06:18:17;;;;;;;7.25;2.90;;;;;;;;;;4963802;28;20131;-64
2023/07/02 06:20:43;;;;;;;6.50;2.80;;;;;;;;;;4960994;28;20041;-64
2023/07/02 06:23:09;;;;;;;6.93;2.67;;;;;;;;;;4976824;28;20038;-64
2023/07/02 06:25:35;;;;;;;8.32;3.20;;;;;;;;;;4983251;28;20121;-64
2023/07/02 06:28:02;;;;;;;7.72;2.65;;;;;;;;;;4976749;28;20030;-65
2023/07/02 06:30:28;;;;;;;7.70;3.03;;;;;;;;;;4983588;28;20034;-65
2023/07/02 06:32:54;;;;;;;7.60;3.17;;;;;;;;;;4955960;28;20030;-66
2023/07/02 06:35:21;;;;;;;9.07;3.25;;;;;;;;;;4980259;28;20217;-66
2023/07/02 06:37:47;;;;;;;8.20;3.30;;;;;;;;;;4980415;28;20207;-63
2023/07/02 06:40:13;;;;;;;10.00;3.78;;;;;;;;;;4961925;28;20036;-63
2023/07/02 06:42:40;;;;;;;8.55;3.20;;;;;;;;;;4963397;28;20279;-64
2023/07/02 06:45:07;;;;;;;10.07;3.67;;;;;;;;;;4960805;28;20644;-64
2023/07/02 06:47:33;;;;;;;9.40;3.75;;;;;;;;;;4978500;28;20060;-64
2023/07/02 06:49:59;;;;;;;8.05;3.25;;;;;;;;;;4978379;28;20787;-64
2023/07/02 06:52:25;;;;;;;8.27;3.10;;;;;;;;;;4980057;28;20053;-65
2023/07/02 06:54:52;;;;;;;8.85;3.67;;;;;;;;;;4973792;28;20236;-65
2023/07/02 06:57:18;;;;;;;7.35;2.95;;;;;;;;;;4977627;28;20031;-65
2023/07/02 06:59:44;;;;;;;8.43;3.55;;;;;;;;;;4959823;28;20029;-64
2023/07/02 07:02:10;;;;;;;7.90;3.13;;;;;;;;;;4957584;28;20136;-64
2023/07/02 07:04:37;;;;;;;7.63;2.92;;;;;;;;;;4980239;28;20281;-65
2023/07/02 07:07:03;;;;;;;8.38;3.17;;;;;;;;;;4978507;28;20054;-63
2023/07/02 07:09:32;;;;;;;9.07;3.60;;;;;;;;;;4983418;28;20038;-64
2023/07/02 07:11:59;;;;;;;8.90;3.63;;;;;;;;;;4960448;28;20034;-64
2023/07/02 07:14:25;;;;;;;9.27;3.60;;;;;;;;;;4983683;28;20476;-64
2023/07/02 07:16:51;;;;;;;9.82;3.58;;;;;;;;;;4962811;28;20042;-66
2023/07/02 07:19:18;;;;;;;10.20;3.72;;;;;;;;;;4982584;28;20041;-65
2023/07/02 07:21:44;;;;;;;8.70;3.90;;;;;;;;;;4983623;28;20038;-65
2023/07/02 07:24:10;;;;;;;12.25;4.93;;;;;;;;;;4981446;28;20073;-66
2023/07/02 07:26:37;;;;;;;9.02;3.90;;;;;;;;;;4982248;28;20283;-64
2023/07/02 07:29:04;;;;;;;11.60;4.00;;;;;;;;;;4982796;28;20113;-65
2023/07/02 07:31:30;;;;;;;10.15;4.03;;;;;;;;;;4977466;28;20033;-65
2023/07/02 07:33:56;;;;;;;8.57;3.90;;;;;;;;;;4960554;28;20052;-66
2023/07/02 07:36:22;;;;;;;8.80;3.50;;;;;;;;;;4981884;28;20026;-64
2023/07/02 07:38:49;;;;;;;9.88;3.60;;;;;;;;;;4964869;28;20356;-65
2023/07/02 07:41:15;;;;;;;8.13;3.45;;;;;;;;;;4968797;28;20046;-63
2023/07/02 07:43:41;;;;;;;9.32;4.10;;;;;;;;;;4964509;28;20030;-63
2023/07/02 07:46:07;;;;;;;8.25;3.55;;;;;;;;;;4963850;28;20030;-64
2023/07/02 07:48:34;;;;;;;10.70;4.28;;;;;;;;;;4965903;28;20570;-65
2023/07/02 07:51:00;;;;;;;8.95;3.78;;;;;;;;;;4964956;28;20550;-65
2023/07/02 07:53:26;;;;;;;9.35;4.18;;;;;;;;;;4983404;28;20503;-65
2023/07/02 07:55:52;;;;;;;9.70;3.80;;;;;;;;;;4977392;28;20088;-65
2023/07/02 07:58:18;;;;;;;8.35;3.80;;;;;;;;;;4962961;28;20050;-65
2023/07/02 08:00:44;;;;;;;9.13;4.00;;;;;;;;;;4978960;28;20034;-64
2023/07/02 08:03:11;;;;;;;8.90;3.58;;;;;;;;;;4961119;28;20030;-64
2023/07/02 08:05:37;;;;;;;9.13;3.55;;;;;;;;;;4979065;28;20040;-64
2023/07/02 08:08:03;;;;;;;9.77;3.88;;;;;;;;;;4979168;28;20104;-64
2023/07/02 08:10:29;;;;;;;8.65;4.03;;;;;;;;;;4979148;28;20192;-64
2023/07/02 08:12:56;;;;;;;10.23;4.15;;;;;;;;;;4961673;28;20053;-65
2023/07/02 08:15:22;;;;;;;9.20;3.95;;;;;;;;;;4983673;28;20310;-65
2023/07/02 08:17:49;;;;;;;8.80;3.50;;;;;;;;;;4978644;28;20048;-64
2023/07/02 08:20:16;;;;;;;9.70;3.85;;;;;;;;;;4982707;28;20041;-63
2023/07/02 08:22:43;;;;;;;9.18;3.78;;;;;;;;;;4984958;28;20500;-64
2023/07/02 08:25:09;;;;;;;8.43;3.90;;;;;;;;;;4980735;28;20073;-65
2023/07/02 08:27:35;;;;;;;9.65;3.90;;;;;;;;;;4965647;28;20491;-64
2023/07/02 08:30:01;;;;;;;8.70;3.80;;;;;;;;;;4979924;28;20032;-65
2023/07/02 08:32:28;;;;;;;7.90;3.60;;;;;;;;;;4977106;28;20366;-64
2023/07/02 08:34:57;;;;;;;8.63;3.83;;;;;;;;;;4978325;28;20325;-65
2023/07/02 08:37:24;;;;;;;8.02;3.58;;;;;;;;;;4981444;28;20022;-64
2023/07/02 08:39:52;;;;;;;9.65;3.70;;;;;;;;;;4980215;28;20041;-65
2023/07/02 08:42:18;;;;;;;9.23;3.95;;;;;;;;;;4978089;28;20108;-65
2023/07/02 08:44:48;;;;;;;9.45;4.30;;;;;;;;;;4980178;28;20113;-65
2023/07/02 08:47:14;;;;;;;9.88;4.32;;;;;;;;;;4964335;28;20298;-65
2023/07/02 08:49:40;;;;;;;10.07;3.75;;;;;;;;;;4977499;28;20034;-65
2023/07/02 08:52:07;;;;;;;10.20;4.13;;;;;;;;;;4976685;28;20023;-65
2023/07/02 08:54:33;;;;;;;7.43;3.42;;;;;;;;;;4977838;28;20474;-64
2023/07/02 08:57:04;;;;;;;10.15;4.00;;;;;;;;;;4950304;28;20034;-66
2023/07/02 08:59:30;;;;;;;9.32;4.00;;;;;;;;;;4978615;28;20038;-66
2023/07/02 09:01:56;;;;;;;9.63;4.07;;;;;;;;;;4983044;28;20516;-64
2023/07/02 09:04:24;;;;;;;8.98;3.63;;;;;;;;;;4978452;28;20491;-64
2023/07/02 09:06:51;;;;;;;9.57;3.97;;;;;;;;;;4975587;28;20312;-65
2023/07/02 09:09:18;;;;;;;8.15;3.75;;;;;;;;;;4957741;28;20072;-65
2023/07/02 09:11:49;;;;;;;10.07;3.83;;;;;;;;;;4969790;28;20032;-65
2023/07/02 09:14:28;;;;;;;9.10;3.72;;;;;;;;;;4966067;28;20038;-65
2023/07/02 09:17:09;;;;;;;9.45;4.38;;;;;;;;;;4978143;28;20519;-65
2023/07/02 09:19:36;;;;;;;8.13;3.88;;;;;;;;;;4955122;28;20076;-65
2023/07/02 09:22:02;;;;;;;10.23;4.10;;;;;;;;;;4959109;28;20030;-65
2023/07/02 09:24:31;;;;;;;9.45;4.20;;;;;;;;;;4963938;28;20049;-64
2023/07/02 09:26:59;;;;;;;9.18;3.95;;;;;;;;;;4958621;28;20050;-64
2023/07/02 09:29:29;;;;;;;8.77;4.20;;;;;;;;;;4960545;28;20531;-64
2023/07/02 09:31:57;;;;;;;8.95;3.88;;;;;;;;;;4961912;28;20110;-65
2023/07/02 09:34:28;;;;;;;10.40;4.95;;;;;;;;;;4963565;28;20138;-65
2023/07/02 09:36:54;;;;;;;9.35;4.05;;;;;;;;;;4961976;28;20665;-64
2023/07/02 09:39:24;;;;;;;9.38;3.85;;;;;;;;;;4958406;28;20030;-66
2023/07/02 09:41:50;;;;;;;8.02;3.70;;;;;;;;;;4963309;28;20058;-65
2023/07/02 09:44:18;;;;;;;8.68;3.50;;;;;;;;;;4964088;28;20056;-65
2023/07/02 09:46:56;;;;;;;8.07;3.50;;;;;;;;;;4963418;28;20483;-66
2023/07/02 09:49:32;;;;;;;9.30;3.78;;;;;;;;;;4960443;28;20034;-65
2023/07/02 09:51:59;;;;;;;9.77;4.05;;;;;;;;;;4960702;28;20049;-65
2023/07/02 09:54:26;;;;;;;11.40;4.20;;;;;;;;;;4959620;28;20030;-65
2023/07/02 09:56:52;;;;;;;7.55;3.38;;;;;;;;;;4957829;28;20038;-64
2023/07/02 09:59:19;;;;;;;8.55;3.78;;;;;;;;;;4961810;28;20109;-65
2023/07/02 10:01:45;;;;;;;8.25;3.72;;;;;;;;;;4959541;28;20223;-64
2023/07/02 10:04:15;;;;;;;10.32;4.25;;;;;;;;;;4961641;28;20758;-67
2023/07/02 10:06:52;;;;;;;10.05;4.55;;;;;;;;;;4968939;28;20401;-65
2023/07/02 10:09:18;;;;;;;10.23;4.55;;;;;;;;;;4967816;28;20031;-65
2023/07/02 10:11:45;;;;;;;9.43;4.78;;;;;;;;;;4957856;28;20031;-65
2023/07/02 10:14:11;;;;;;;10.07;4.72;;;;;;;;;;4952283;28;20026;-66
2023/07/02 10:16:50;;;;;;;10.35;4.70;;;;;;;;;;4964688;28;20031;-66
2023/07/02 10:19:17;;;;;;;9.50;4.70;;;;;;;;;;4964625;28;20088;-66
2023/07/02 10:21:45;;;;;;;9.65;4.45;;;;;;;;;;4960162;28;20038;-65
2023/07/02 10:24:15;;;;;;;10.40;4.60;;;;;;;;;;4961953;28;20042;-65
2023/07/02 10:26:56;;;;;;;10.15;3.88;;;;;;;;;;4959821;28;20101;-66
2023/07/02 10:29:24;;;;;;;10.23;4.90;;;;;;;;;;4962644;28;20337;-65
2023/07/02 10:31:57;;;;;;;10.13;4.32;;;;;;;;;;4955766;28;20097;-65
2023/07/02 10:34:29;;;;;;;10.85;4.57;;;;;;;;;;4961114;28;20664;-65
2023/07/02 10:36:55;;;;;;;10.02;4.72;;;;;;;;;;4954735;28;20105;-65
2023/07/02 10:39:22;;;;;;;9.57;4.45;;;;;;;;;;4960520;28;20058;-65
2023/07/02 10:41:49;;;;;;;14.75;4.82;;;;;;;;;;4965143;28;20137;-64
2023/07/02 10:44:15;;;;;;;10.27;4.68;;;;;;;;;;4961418;28;20512;-65
2023/07/02 10:46:45;;;;;;;10.50;4.82;;;;;;;;;;4963753;28;21006;-65
2023/07/02 10:49:11;;;;;;;8.75;4.80;;;;;;;;;;4960331;28;20041;-66
2023/07/02 10:51:38;;;;;;;10.32;4.85;;;;;;;;;;4965787;28;20069;-66
2023/07/02 10:54:05;;;;;;;9.55;4.90;;;;;;;;;;4962222;28;20227;-67
2023/07/02 10:56:32;;;;;;;10.15;4.65;;;;;;;;;;4966504;28;20264;-66
2023/07/02 10:58:58;;;;;;;9.50;4.85;;;;;;;;;;4962425;28;20033;-66
2023/07/02 11:01:24;;;;;;;11.52;4.90;;;;;;;;;;4960049;28;20018;-67
2023/07/02 11:04:01;;;;;;;10.18;4.68;;;;;;;;;;4962544;28;20038;-65
2023/07/02 11:06:28;;;;;;;9.60;4.40;;;;;;;;;;4965351;28;20307;-67
2023/07/02 11:08:55;;;;;;;9.43;4.40;;;;;;;;;;4974982;28;20813;-66
2023/07/02 11:11:24;;;;;;;9.05;4.53;;;;;;;;;;4967856;28;20026;-67
2023/07/02 11:13:51;;;;;;;9.30;4.78;;;;;;;;;;4964948;28;20090;-66
2023/07/02 11:16:29;;;;;;;8.88;4.20;;;;;;;;;;4971532;28;20054;-67
2023/07/02 11:19:08;;;;;;;8.43;4.03;;;;;;;;;;4978456;28;20057;-66
2023/07/02 11:21:34;;;;;;;8.35;3.92;;;;;;;;;;4981277;28;20528;-66
2023/07/02 11:24:04;;;;;;;9.52;4.63;;;;;;;;;;4984108;28;20521;-66
2023/07/02 11:26:40;;;;;;;8.60;4.47;;;;;;;;;;4983503;28;20076;-65
2023/07/02 11:29:13;;;;;;;8.30;4.13;;;;;;;;;;4976897;28;20044;-66
2023/07/02 11:31:39;;;;;;;9.02;4.35;;;;;;;;;;4986507;28;20630;-66
2023/07/02 11:34:14;;;;;;;9.60;4.30;;;;;;;;;;4981681;28;20412;-66
2023/07/02 11:36:41;;;;;;;9.30;4.32;;;;;;;;;;4983965;28;20040;-66
2023/07/02 11:39:07;;;;;;;9.15;3.97;;;;;;;;;;4971030;28;20022;-66
2023/07/02 11:41:40;;;;;;;8.98;4.35;;;;;;;;;;4986947;28;20044;-66
2023/07/02 11:44:06;;;;;;;9.00;4.38;;;;;;;;;;4987270;28;20036;-67
2023/07/02 11:46:33;;;;;;;9.88;4.40;;;;;;;;;;4983724;28;20708;-67
2023/07/02 11:49:00;;;;;;;9.32;4.35;;;;;;;;;;4983992;28;20376;-65
2023/07/02 11:51:26;;;;;;;9.80;4.82;;;;;;;;;;4985055;28;20049;-67
2023/07/02 11:53:52;;;;;;;9.10;4.38;;;;;;;;;;4984880;28;20034;-65
2023/07/02 11:56:19;;;;;;;9.75;4.60;;;;;;;;;;4987163;28;20040;-65
2023/07/02 11:58:45;;;;;;;9.57;4.60;;;;;;;;;;4983649;28;20551;-66
2023/07/02 12:01:11;;;;;;;7.78;3.53;;;;;;;;;;4984031;28;20354;-66
2023/07/02 12:03:37;;;;;;;11.00;4.85;;;;;;;;;;4979062;28;20467;-66
2023/07/02 12:06:03;;;;;;;10.02;4.05;;;;;;;;;;4982299;28;20679;-66
2023/07/02 12:08:29;;;;;;;8.50;4.07;;;;;;;;;;4979939;28;20518;-67
2023/07/02 12:10:56;;;;;;;7.90;4.07;;;;;;;;;;4970598;28;20037;-66
2023/07/02 12:13:22;;;;;;;11.07;4.05;;;;;;;;;;4972939;28;20791;-66
2023/07/02 12:15:51;;;;;;;10.80;4.75;;;;;;;;;;4987303;28;20535;-66
2023/07/02 12:18:17;;;;;;;10.32;4.47;;;;;;;;;;4964360;28;20073;-65
2023/07/02 12:20:43;;;;;;;8.35;4.15;;;;;;;;;;4972002;28;20034;-66
2023/07/02 12:23:13;;;;;;;9.00;4.00;;;;;;;;;;4975056;28;20124;-66
2023/07/02 12:25:39;;;;;;;8.57;3.80;;;;;;;;;;4981621;28;20034;-66
2023/07/02 12:28:05;;;;;;;10.75;4.68;;;;;;;;;;4984087;28;20040;-66
2023/07/02 12:30:32;;;;;;;8.43;3.83;;;;;;;;;;4985121;28;20085;-66
2023/07/02 12:32:58;;;;;;;9.18;4.35;;;;;;;;;;4979693;28;20370;-67
2023/07/02 12:35:24;;;;;;;8.70;4.30;;;;;;;;;;4985468;28;20468;-66
2023/07/02 12:37:51;;;;;;;9.68;4.78;;;;;;;;;;4969389;28;20074;-65
2023/07/02 12:40:18;;;;;;;9.95;4.72;;;;;;;;;;4974237;28;20153;-66
2023/07/02 12:42:45;;;;;;;9.88;4.57;;;;;;;;;;4984431;28;20033;-67
2023/07/02 12:45:12;;;;;;;11.07;4.57;;;;;;;;;;4981498;28;20369;-66
2023/07/02 12:47:38;;;;;;;9.52;4.68;;;;;;;;;;4984230;28;20028;-67
2023/07/02 12:50:05;;;;;;;11.18;4.68;;;;;;;;;;4979954;28;20046;-66
2023/07/02 12:52:31;;;;;;;10.13;4.65;;;;;;;;;;4986018;28;20030;-66
2023/07/02 12:54:58;;;;;;;9.57;4.53;;;;;;;;;;4969328;28;20042;-67
2023/07/02 12:57:26;;;;;;;9.82;4.45;;;;;;;;;;4983272;28;20104;-66
2023/07/02 12:59:52;;;;;;;9.85;5.20;;;;;;;;;;4964383;28;20599;-66
2023/07/02 13:02:18;;;;;;;10.48;5.50;;;;;;;;;;4980233;28;20205;-66
2023/07/02 13:04:44;;;;;;;11.70;6.45;;;;;;;;;;4980019;28;20046;-67
2023/07/02 13:07:11;;;;;;;10.65;5.95;;;;;;;;;;4981374;28;20041;-67
2023/07/02 13:09:37;;;;;;;12.93;7.88;;;;;;;;;;4981879;28;20476;-67
2023/07/02 13:12:03;;;;;;;11.85;5.35;;;;;;;;;;4984333;28;20113;-66
2023/07/02 13:14:29;;;;;;;11.18;6.15;;;;;;;;;;4981045;28;20137;-66
2023/07/02 13:16:55;;;;;;;10.65;5.40;;;;;;;;;;4966733;28;20423;-67
2023/07/02 13:19:22;;;;;;;10.25;4.70;;;;;;;;;;4985701;28;20480;-67
2023/07/02 13:21:48;;;;;;;11.45;5.10;;;;;;;;;;4969383;28;20030;-65
2023/07/02 13:24:14;;;;;;;9.13;4.97;;;;;;;;;;4983362;28;20093;-66
2023/07/02 13:26:40;;;;;;;9.13;4.70;;;;;;;;;;4971842;28;20062;-66
2023/07/02 13:29:06;;;;;;;7.88;4.00;;;;;;;;;;4984995;28;20041;-65
2023/07/02 13:31:32;;;;;;;10.25;4.85;;;;;;;;;;4990110;28;20392;-66
2023/07/02 13:33:59;;;;;;;10.63;5.32;;;;;;;;;;4981820;28;20115;-67
2023/07/02 13:36:25;;;;;;;9.65;4.15;;;;;;;;;;4984392;28;20616;-66
2023/07/02 13:38:51;;;;;;;12.88;4.90;;;;;;;;;;4983161;28;20551;-65
2023/07/02 13:41:18;;;;;;;9.52;4.40;;;;;;;;;;4972238;28;20068;-67
2023/07/02 13:43:44;;;;;;;11.18;4.85;;;;;;;;;;4987070;28;20390;-66
2023/07/02 13:46:10;;;;;;;10.45;4.63;;;;;;;;;;4987143;28;20081;-67
2023/07/02 13:48:36;;;;;;;10.38;4.40;;;;;;;;;;4981810;28;20064;-66
2023/07/02 13:51:02;;;;;;;10.48;4.78;;;;;;;;;;4977146;28;20049;-67
2023/07/02 13:53:28;;;;;;;10.07;4.72;;;;;;;;;;4969833;28;20038;-66
2023/07/02 13:55:55;;;;;;;9.73;4.43;;;;;;;;;;4958971;28;20042;-65
2023/07/02 13:58:21;;;;;;;10.85;4.32;;;;;;;;;;4988077;28;20111;-66
2023/07/02 14:00:47;;;;;;;10.27;4.70;;;;;;;;;;4973566;28;20062;-66
2023/07/02 14:03:13;;;;;;;9.45;4.38;;;;;;;;;;4984365;28;20065;-65
2023/07/02 14:05:39;;;;;;;10.90;4.20;;;;;;;;;;4986639;28;20058;-66
2023/07/02 14:08:05;;;;;;;10.13;4.57;;;;;;;;;;4967473;28;20068;-66
2023/07/02 14:10:31;;;;;;;10.48;4.18;;;;;;;;;;4982686;28;20098;-66
2023/07/02 14:12:58;;;;;;;10.13;4.25;;;;;;;;;;4967717;28;20040;-66
2023/07/02 14:15:25;;;;;;;9.88;4.53;;;;;;;;;;4988889;28;20037;-67
2023/07/02 14:17:51;;;;;;;10.57;4.70;;;;;;;;;;4981734;28;20248;-66
2023/07/02 14:20:18;;;;;;;9.60;4.75;;;;;;;;;;4982494;28;20644;-66
2023/07/02 14:22:44;;;;;;;10.05;5.05;;;;;;;;;;4986900;28;20536;-66
2023/07/02 14:25:10;;;;;;;10.10;5.10;;;;;;;;;;4984130;28;20052;-66
2023/07/02 14:27:36;;;;;;;8.95;4.78;;;;;;;;;;4980857;28;20492;-66
2023/07/02 14:30:07;;;;;;;10.43;4.85;;;;;;;;;;4982307;28;20065;-67
2023/07/02 14:32:34;;;;;;;10.82;4.97;;;;;;;;;;4970393;28;20461;-66
2023/07/02 14:35:01;;;;;;;10.15;5.00;;;;;;;;;;4969664;28;20083;-68
2023/07/02 14:37:27;;;;;;;9.68;4.95;;;;;;;;;;4964745;28;20026;-68